Mr Thomas — WDD7163 — position and weather

sailwx.info

Track history (hours):
 
Tides and Currents Weather Stations Pressure Air Temp Water Temp Dewpoint Dewpoint Depression Visibility Wind Speed Wind Dir Waves Ship Positions

Mr Thomas

Owner: CENTRAL BOAT RENTALS, BERWICK, LA. More information available from US FCC via Universal Licensing System and Coast Guard Vessel Documentation Center.

Last reported at 2017-Apr-30 17:30 UTC. Time now 2017-May-01 06:21 UTC.
Position N 29°41' W 091°13'.

Length 21 m; draft 2.5 m.

Type: Tug. MMSI: 367182730.

Date/timePositionNaut miles runAvg speedWind from/ knotsBaromVisibWave heightAir tempDewpointWater temp
2017-Apr-30 17:30N 29°41' W 091°13'8 5.8
2017-Apr-30 16:02N 29°38' W 091°04'  
2017-Apr-28 00:58N 29°50' W 091°50'3 6.3
2017-Apr-28 00:25N 29°51' W 091°53'3 6.9
2017-Apr-28 00:00N 29°51' W 091°57'3 6.7
2017-Apr-27 23:30N 29°50' W 092°00'3 6.6
2017-Apr-27 23:01N 29°48' W 092°04'3 6.5
2017-Apr-27 22:30N 29°47' W 092°07'2 3.6
2017-Apr-27 22:00N 29°46' W 092°08'3 6.0
2017-Apr-27 21:30N 29°43' W 092°06'3 6.0
2017-Apr-27 21:00N 29°41' W 092°04'3 6.1
2017-Apr-27 20:30N 29°38' W 092°01'3 4.6
2017-Apr-27 19:48N 29°35' W 092°02'1 5.1
2017-Apr-27 19:30N 29°34' W 092°03'5 5.9
2017-Apr-27 18:39N 29°30' W 091°60'8 0.2
2017-Apr-26 11:30N 29°37' W 092°00'3 5.3
2017-Apr-26 11:00N 29°39' W 092°02'3 5.1
2017-Apr-26 10:30N 29°41' W 092°04'2 5.0
2017-Apr-26 10:00N 29°43' W 092°06'2 4.6
2017-Apr-26 09:30N 29°45' W 092°07'2 4.6
2017-Apr-26 09:00N 29°47' W 092°09'1 1.4
2017-Apr-26 08:29N 29°47' W 092°10'1 2.5
2017-Apr-26 08:00N 29°47' W 092°08'3 6.1
2017-Apr-26 07:30N 29°48' W 092°05'3 6.3
2017-Apr-26 07:00N 29°49' W 092°02'3 6.0
2017-Apr-26 06:30N 29°50' W 091°58'3 6.0
2017-Apr-26 06:00N 29°51' W 091°55'  
Track history (hours):
 
Tides and Currents Weather Stations Pressure Air Temp Water Temp Dewpoint Dewpoint Depression Visibility Wind Speed Wind Dir Waves Ship Positions

Mr Thomas

Owner: CENTRAL BOAT RENTALS, BERWICK, LA. More information available from US FCC via Universal Licensing System and Coast Guard Vessel Documentation Center.

Last reported at 2017-Apr-30 17:30 UTC. Time now 2017-May-01 06:21 UTC.
Position N 29°41' W 091°13'.

Length 21 m; draft 2.5 m.

Type: Tug. MMSI: 367182730.

Date/timePositionNaut miles runAvg speedWind from/ knotsBaromVisibWave heightAir tempDewpointWater temp
2017-Apr-30 17:30N 29°41' W 091°13'8 5.8
2017-Apr-30 16:02N 29°38' W 091°04'  
2017-Apr-28 00:58N 29°50' W 091°50'3 6.3
2017-Apr-28 00:25N 29°51' W 091°53'3 6.9
2017-Apr-28 00:00N 29°51' W 091°57'3 6.7
2017-Apr-27 23:30N 29°50' W 092°00'3 6.6
2017-Apr-27 23:01N 29°48' W 092°04'3 6.5
2017-Apr-27 22:30N 29°47' W 092°07'2 3.6
2017-Apr-27 22:00N 29°46' W 092°08'3 6.0
2017-Apr-27 21:30N 29°43' W 092°06'3 6.0
2017-Apr-27 21:00N 29°41' W 092°04'3 6.1
2017-Apr-27 20:30N 29°38' W 092°01'3 4.6
2017-Apr-27 19:48N 29°35' W 092°02'1 5.1
2017-Apr-27 19:30N 29°34' W 092°03'5 5.9
2017-Apr-27 18:39N 29°30' W 091°60'8 0.2
2017-Apr-26 11:30N 29°37' W 092°00'3 5.3
2017-Apr-26 11:00N 29°39' W 092°02'3 5.1
2017-Apr-26 10:30N 29°41' W 092°04'2 5.0
2017-Apr-26 10:00N 29°43' W 092°06'2 4.6
2017-Apr-26 09:30N 29°45' W 092°07'2 4.6
2017-Apr-26 09:00N 29°47' W 092°09'1 1.4
2017-Apr-26 08:29N 29°47' W 092°10'1 2.5
2017-Apr-26 08:00N 29°47' W 092°08'3 6.1
2017-Apr-26 07:30N 29°48' W 092°05'3 6.3
2017-Apr-26 07:00N 29°49' W 092°02'3 6.0
2017-Apr-26 06:30N 29°50' W 091°58'3 6.0
2017-Apr-26 06:00N 29°51' W 091°55'  

Dump ship's entire track history